createdAt,value
2022-08-26T00:01:00.137Z,5.30
2022-08-26T00:06:01.707Z,4.25
2022-08-26T00:11:04.289Z,4.88
2022-08-26T00:16:09.153Z,3.78
2022-08-26T00:21:13.505Z,4.60
2022-08-26T00:26:15.195Z,5.72
2022-08-26T00:31:16.990Z,4.82
2022-08-26T00:36:20.240Z,3.95
2022-08-26T00:41:22.161Z,5.40
2022-08-26T00:46:28.913Z,4.55
2022-08-26T00:51:31.434Z,5.97
2022-08-26T00:56:42.218Z,4.00
2022-08-26T01:01:44.366Z,3.72
2022-08-26T01:06:50.734Z,3.75
2022-08-26T01:11:55.740Z,5.95
2022-08-26T01:16:57.690Z,4.65
2022-08-26T01:22:05.548Z,4.57
2022-08-26T01:27:09.917Z,6.50
2022-08-26T01:32:15.970Z,8.45
2022-08-26T01:37:22.871Z,4.53
2022-08-26T01:42:27.460Z,5.53
2022-08-26T01:47:35.207Z,4.90
2022-08-26T01:52:41.332Z,8.82
2022-08-26T01:57:47.804Z,4.05
2022-08-26T02:03:11.860Z,4.05
2022-08-26T02:08:24.889Z,5.05
2022-08-26T02:13:30.245Z,4.15
2022-08-26T02:18:35.829Z,4.13
2022-08-26T02:23:43.228Z,4.93
2022-08-26T02:28:49.978Z,6.03
2022-08-26T02:33:51.746Z,3.90
2022-08-26T02:38:53.217Z,3.88
2022-08-26T02:43:57.202Z,4.68
2022-08-26T02:49:01.329Z,4.22
2022-08-26T02:54:02.987Z,7.47
2022-08-26T02:59:06.129Z,4.85
2022-08-26T03:04:10.910Z,3.85
2022-08-26T03:09:18.451Z,6.53
2022-08-26T03:14:21.197Z,6.45
2022-08-26T03:19:25.981Z,8.40
2022-08-26T03:24:27.796Z,4.78
2022-08-26T03:29:49.562Z,7.07
2022-08-26T03:34:53.006Z,5.32
2022-08-26T03:39:54.710Z,5.78
2022-08-26T03:44:57.702Z,5.43
2022-08-26T03:49:59.386Z,4.22
2022-08-26T03:55:01.331Z,3.88
2022-08-26T04:00:10.272Z,4.43
2022-08-26T04:05:17.605Z,5.97
2022-08-26T04:10:28.983Z,6.35
2022-08-26T04:15:31.026Z,8.45
2022-08-26T04:20:32.563Z,5.28
2022-08-26T04:25:34.759Z,7.63
2022-08-26T04:30:37.924Z,5.28
2022-08-26T04:35:40.142Z,6.13
2022-08-26T04:40:46.935Z,7.18
2022-08-26T04:45:50.384Z,8.30
2022-08-26T04:50:53.096Z,6.35
2022-08-26T04:55:55.238Z,6.38
2022-08-26T05:00:57.277Z,6.55
2022-08-26T05:06:00.638Z,7.13
2022-08-26T05:11:04.931Z,8.95
2022-08-26T05:16:11.655Z,8.55
2022-08-26T05:21:22.566Z,4.22
2022-08-26T05:26:28.369Z,7.57
2022-08-26T05:31:31.795Z,6.25
2022-08-26T05:36:35.566Z,11.20
2022-08-26T05:41:40.764Z,6.07
2022-08-26T05:46:44.776Z,8.30
2022-08-26T05:51:47.702Z,6.88
2022-08-26T05:56:52.337Z,8.13
2022-08-26T06:01:55.203Z,10.38
2022-08-26T06:06:57.236Z,7.97
2022-08-26T06:11:58.946Z,9.15
2022-08-26T06:17:00.847Z,5.70
2022-08-26T06:22:23.734Z,6.78
2022-08-26T06:27:27.309Z,6.43
2022-08-26T06:32:32.174Z,5.63
2022-08-26T06:37:33.726Z,8.30
2022-08-26T06:42:38.053Z,3.47
2022-08-26T06:47:44.445Z,4.10
2022-08-26T06:52:52.660Z,4.57
2022-08-26T06:57:57.007Z,7.40
2022-08-26T07:02:58.536Z,7.40
2022-08-26T07:08:00.408Z,6.15
2022-08-26T07:13:02.279Z,15.82
2022-08-26T07:18:07.255Z,8.02
2022-08-26T07:23:11.641Z,6.40
2022-08-26T07:28:13.794Z,9.95
2022-08-26T07:33:15.422Z,5.40
2022-08-26T07:38:17.017Z,3.92
2022-08-26T07:43:18.660Z,5.68
2022-08-26T07:48:23.312Z,7.95
2022-08-26T07:53:24.799Z,3.80
2022-08-26T07:58:26.481Z,5.30
2022-08-26T08:03:28.178Z,5.60
2022-08-26T08:08:32.898Z,4.32
2022-08-26T08:13:34.439Z,4.53
2022-08-26T08:18:36.018Z,7.95
2022-08-26T08:23:37.748Z,5.45
2022-08-26T08:28:39.868Z,7.10
2022-08-26T08:33:43.017Z,5.15
2022-08-26T08:38:45.125Z,6.78
2022-08-26T08:43:47.402Z,9.43
2022-08-26T08:48:58.642Z,5.63
2022-08-26T08:54:02.666Z,3.70
2022-08-26T08:59:24.591Z,3.60
2022-08-26T09:05:04.995Z,12.43
2022-08-26T09:10:15.452Z,3.50
2022-08-26T09:15:28.681Z,3.38
2022-08-26T09:20:53.217Z,3.50
2022-08-26T09:26:01.251Z,3.53
2022-08-26T09:31:13.675Z,5.30
2022-08-26T09:36:24.909Z,3.28
2022-08-26T09:41:35.451Z,5.88
2022-08-26T09:51:50.159Z,4.88
2022-08-26T09:56:52.458Z,8.05
2022-08-26T10:01:54.956Z,3.40
2022-08-26T10:07:06.412Z,5.28
2022-08-26T10:12:16.973Z,4.07
2022-08-26T10:17:34.130Z,4.78
2022-08-26T10:22:50.485Z,3.97
2022-08-26T10:28:18.087Z,5.10
2022-08-26T10:33:20.106Z,3.33
2022-08-26T10:38:31.983Z,7.10
2022-08-26T10:43:55.481Z,7.72
2022-08-26T10:49:10.511Z,4.50
2022-08-26T10:54:19.805Z,3.90
2022-08-26T10:59:37.822Z,4.00
2022-08-26T11:04:59.042Z,4.88
2022-08-26T11:10:10.339Z,5.75
2022-08-26T11:15:24.487Z,3.67
2022-08-26T11:20:47.321Z,6.00
2022-08-26T11:26:01.562Z,5.13
2022-08-26T11:31:08.714Z,5.35
2022-08-26T11:36:27.570Z,6.20
2022-08-26T11:41:31.359Z,6.00
2022-08-26T11:46:37.368Z,5.13
2022-08-26T11:51:40.848Z,5.15
2022-08-26T11:56:46.971Z,8.57
2022-08-26T12:01:51.811Z,4.75
2022-08-26T12:06:53.458Z,4.53
2022-08-26T12:12:16.449Z,4.50
2022-08-26T12:17:26.158Z,4.00
2022-08-26T12:22:40.613Z,6.68
2022-08-26T12:27:53.779Z,8.15
2022-08-26T12:33:22.161Z,4.30
2022-08-26T12:38:34.063Z,2.92
2022-08-26T12:43:44.503Z,3.00
2022-08-26T12:48:49.127Z,2.55
2022-08-26T12:53:51.175Z,4.18
2022-08-26T12:59:17.628Z,3.13
2022-08-26T13:04:40.819Z,4.00
2022-08-26T13:09:42.283Z,5.95
2022-08-26T13:14:44.632Z,3.30
2022-08-26T13:19:46.141Z,3.13
2022-08-26T13:24:48.057Z,4.68
2022-08-26T13:29:51.364Z,5.22
2022-08-26T13:34:55.014Z,5.30
2022-08-26T13:39:56.558Z,5.97
2022-08-26T13:44:59.018Z,6.80
2022-08-26T13:50:00.473Z,5.22
2022-08-26T13:55:02.111Z,6.22
2022-08-26T14:00:05.114Z,5.32
2022-08-26T14:05:07.373Z,4.78
2022-08-26T14:10:09.439Z,8.15
2022-08-26T14:15:11.835Z,10.40
2022-08-26T14:20:17.454Z,8.50
2022-08-26T14:25:19.899Z,4.30
2022-08-26T14:30:21.873Z,5.85
2022-08-26T14:35:27.676Z,4.43
2022-08-26T14:40:31.578Z,8.35
2022-08-26T14:50:43.375Z,6.32
2022-08-26T14:55:46.008Z,4.13
2022-08-26T15:00:47.921Z,6.35
2022-08-26T15:05:49.493Z,5.75
2022-08-26T15:10:51.618Z,6.38
2022-08-26T15:15:53.490Z,5.07
2022-08-26T15:20:55.743Z,5.72
2022-08-26T15:25:57.550Z,5.57
2022-08-26T15:31:00.802Z,6.18
2022-08-26T15:36:04.590Z,6.97
2022-08-26T15:41:08.676Z,7.85
2022-08-26T15:46:11.856Z,5.28
2022-08-26T15:51:26.247Z,8.48
2022-08-26T15:56:31.020Z,12.88
2022-08-26T16:01:32.767Z,8.63
2022-08-26T16:06:36.702Z,8.57
2022-08-26T16:11:38.485Z,9.45
2022-08-26T16:16:41.799Z,11.50
2022-08-26T16:21:43.317Z,9.60
2022-08-26T16:26:45.276Z,7.70
2022-08-26T16:31:47.655Z,8.85
2022-08-26T16:36:49.194Z,7.22
2022-08-26T16:41:50.668Z,9.00
2022-08-26T16:46:55.992Z,7.22
2022-08-26T16:52:00.280Z,4.93
2022-08-26T16:57:02.563Z,6.55
2022-08-26T17:02:05.073Z,4.95
2022-08-26T17:07:06.959Z,4.88
2022-08-26T17:12:08.984Z,8.52
2022-08-26T17:17:11.949Z,7.95
2022-08-26T17:22:13.480Z,10.38
2022-08-26T17:27:15.285Z,13.13
2022-08-26T17:32:16.738Z,8.80
2022-08-26T17:37:18.234Z,12.95
2022-08-26T17:42:19.869Z,12.48
2022-08-26T17:47:21.319Z,22.95
2022-08-26T17:52:23.109Z,27.63
2022-08-26T17:57:26.130Z,24.15
2022-08-26T18:07:33.509Z,16.48
2022-08-26T18:17:44.826Z,19.77
2022-08-26T18:22:47.793Z,13.75
2022-08-26T18:27:49.439Z,14.35
2022-08-26T18:32:52.084Z,13.07
2022-08-26T18:37:53.872Z,11.07
2022-08-26T18:42:55.342Z,17.92
2022-08-26T18:47:57.396Z,16.05
2022-08-26T18:52:58.821Z,16.00
2022-08-26T18:58:00.281Z,18.05
2022-08-26T19:03:01.829Z,16.10
2022-08-26T19:08:03.514Z,15.38
2022-08-26T19:13:09.632Z,17.67
2022-08-26T19:18:14.443Z,20.55
2022-08-26T19:23:30.997Z,15.73
2022-08-26T19:28:34.245Z,14.85
2022-08-26T19:33:37.992Z,19.27
2022-08-26T19:38:39.485Z,16.67
2022-08-26T19:43:41.613Z,17.50
2022-08-26T19:48:44.409Z,20.02
2022-08-26T19:53:47.946Z,16.60
2022-08-26T19:58:50.643Z,17.98
2022-08-26T20:03:52.459Z,18.77
2022-08-26T20:08:54.097Z,16.92
2022-08-26T20:13:59.043Z,15.52
2022-08-26T20:19:18.813Z,17.52
2022-08-26T20:24:21.090Z,19.03
2022-08-26T20:29:22.623Z,19.25
2022-08-26T20:34:24.636Z,21.33
2022-08-26T20:39:29.509Z,21.83
2022-08-26T20:44:30.939Z,19.48
2022-08-26T20:49:32.437Z,21.40
2022-08-26T20:54:36.390Z,23.35
2022-08-26T20:59:37.847Z,18.77
2022-08-26T21:04:40.424Z,23.10
2022-08-26T21:09:42.013Z,21.30
2022-08-26T21:14:47.725Z,30.35
2022-08-26T21:19:51.217Z,28.98
2022-08-26T21:24:52.672Z,30.75
2022-08-26T21:29:55.635Z,26.70
2022-08-26T21:34:59.169Z,27.52
2022-08-26T21:40:05.228Z,25.00
2022-08-26T21:45:07.419Z,31.05
2022-08-26T21:50:09.229Z,34.72
2022-08-26T21:55:11.769Z,30.45
2022-08-26T22:00:15.744Z,32.72
2022-08-26T22:05:17.253Z,26.02
2022-08-26T22:10:18.862Z,24.77
2022-08-26T22:15:23.178Z,33.90
2022-08-26T22:20:24.703Z,23.63
2022-08-26T22:25:26.827Z,28.27
2022-08-26T22:30:28.469Z,25.85
2022-08-26T22:35:30.979Z,22.27
2022-08-26T22:40:33.831Z,24.08
2022-08-26T22:45:44.148Z,23.35
2022-08-26T22:50:47.443Z,24.88
2022-08-26T22:55:49.470Z,25.08
2022-08-26T23:00:50.969Z,24.38
2022-08-26T23:05:56.056Z,28.45
2022-08-26T23:10:57.508Z,27.55
2022-08-26T23:16:03.932Z,25.40
2022-08-26T23:21:06.198Z,21.38
2022-08-26T23:26:08.294Z,17.02
2022-08-26T23:31:09.755Z,28.10
2022-08-26T23:36:14.619Z,24.90
2022-08-26T23:41:22.327Z,24.05
2022-08-26T23:46:23.817Z,24.80
2022-08-26T23:51:44.271Z,19.65
2022-08-26T23:56:47.557Z,25.85
